• Join FlightAware (Why Join?)
  • Login
  • US Flag 
06:21AM EDT


 

Airport Tracker/Info


-or-


 

Live Flight TrackerFlight Track Log ✈ JZA7832 ✈ 03-May-2013 ✈ CYTS - CYYZ

Flight Track Log - Related Links

Times and Time Zones

All times are in EDT time to prevent confusion due to time zone crossing. See the JZA7832 flight status page for this flight to view local times or setup timezone preferences in your user account.

Time Position Orientation Groundspeed Altitude Reporting Facility
EDT Latitude Longitude Course Direction KTS MPH feet Rate Location/Type
08:37PM 48.1993 -81.2540 171° South  Level FlightAware Approximate
08:38PM 48.1380 -81.2364 169° South  Level FlightAware Approximate
08:39PM 48.0767 -81.2180 169° South  Level FlightAware Approximate
08:40PM 48.0154 -81.1997 169° South  Level FlightAware Approximate
08:40PM 48.0500 -81.2333 171° South 210 242 10,000  Level Toronto Center
08:41PM 47.9541 -81.1821 169° South  Level FlightAware Approximate
08:41PM 48.0000 -81.2000 156° South 170 196 11,000  Level Toronto Center
08:42PM 47.8913 -81.1641 169° South  Level FlightAware Approximate
08:42PM 47.9500 -81.2000 180° South 170 196 11,900  Level Toronto Center
08:43PM 47.8285 -81.1462 169° South  Level FlightAware Approximate
08:43PM 47.9167 -81.1667 146° Southeast 170 196 12,900  Level Toronto Center
08:44PM 47.7659 -81.1275 167° South  Level FlightAware Approximate
08:44PM 47.8667 -81.1667 180° South 180 207 13,800  Level Toronto Center
08:45PM 47.7031 -81.1099 171° South  Level FlightAware Approximate
08:45PM 47.8167 -81.1500 167° South 180 207 14,600  Level Toronto Center
08:46PM 47.6399 -81.0959 171° South  Level FlightAware Approximate
08:46PM 47.7500 -81.1500 180° South 190 219 15,400  Level Toronto Center
08:47PM 47.7000 -81.1167 156° South 200 230 16,000 780 Climbing Toronto Center
08:48PM 47.6500 -81.0833 156° South 200 230 17,000 840 Climbing Toronto Center
08:49PM 47.5833 -81.0833 180° South 200 230 17,700 540 Climbing Toronto Center
08:50PM 47.5333 -81.0667 167° South 210 242 18,100 480 Climbing Toronto Center
08:51PM 47.4833 -81.0667 180° South 210 242 18,700 420 Climbing Toronto Center
08:52PM 47.4167 -81.0333 161° South 210 242 19,000 120 Climbing Toronto Center
08:53PM 47.3500 -81.0167 170° South 230 265 19,000  Level Toronto Center
08:54PM 47.2833 -81.0000 170° South 240 276 19,000  Level Toronto Center
08:55PM 47.2167 -80.9833 170° South 240 276 19,000  Level Toronto Center
08:56PM 47.1500 -80.9500 161° South 250 288 19,000  Level Toronto Center
08:57PM 47.0833 -80.9333 170° South 250 288 19,000  Level Toronto Center
08:58PM 47.0167 -80.9333 180° South 240 276 19,000  Level Toronto Center
08:59PM 46.9667 -80.9000 156° South 250 288 19,000  Level Toronto Center
09:00PM 46.9000 -80.8833 170° South 240 276 19,000  Level Toronto Center
09:01PM 46.8333 -80.8667 170° South 240 276 19,000  Level Toronto Center
09:02PM 46.7667 -80.8500 170° South 240 276 19,000  Level Toronto Center
09:03PM 46.7000 -80.8167 161° South 240 276 19,000  Level Toronto Center
09:04PM 46.6333 -80.8000 170° South 240 276 19,000  Level Toronto Center
09:05PM 46.5667 -80.8000 180° South 240 276 19,000  Level Toronto Center
09:06PM 46.5000 -80.7667 161° South 240 276 19,000  Level Toronto Center
09:07PM 46.4333 -80.7500 170° South 240 276 19,000  Level Toronto Center
09:08PM 46.3833 -80.7500 180° South 240 276 19,000  Level Toronto Center
09:09PM 46.3167 -80.7167 161° South 240 276 19,000  Level Toronto Center
09:10PM 46.2500 -80.7000 170° South 240 276 19,000  Level Toronto Center
09:11PM 46.1833 -80.6667 161° South 240 276 19,000  Level Toronto Center
09:12PM 46.1167 -80.6667 180° South 240 276 19,000  Level Toronto Center
09:13PM 46.0500 -80.6333 161° South 240 276 19,000  Level Toronto Center
09:14PM 45.9833 -80.6167 170° South 240 276 19,000  Level Toronto Center
09:15PM 45.9167 -80.6167 180° South 240 276 19,000  Level Toronto Center
09:16PM 45.8500 -80.5833 161° South 240 276 19,000  Level Toronto Center
09:17PM 45.7833 -80.5667 170° South 240 276 19,000  Level Toronto Center
09:18PM 45.7167 -80.5333 161° South 240 276 19,000  Level Toronto Center
09:19PM 45.6500 -80.5333 180° South 240 276 19,000  Level Toronto Center
09:20PM 45.5833 -80.5167 170° South 250 288 19,000  Level Toronto Center
09:21PM 45.5167 -80.4833 161° South 250 288 19,000  Level Toronto Center
09:22PM 45.4500 -80.4833 180° South 250 288 19,000  Level Toronto Center
09:23PM 45.3833 -80.4667 170° South 250 288 19,000  Level Toronto Center
09:24PM 45.3167 -80.4333 161° South 250 288 19,000  Level Toronto Center
09:25PM 45.2500 -80.4167 170° South 250 288 19,000  Level Toronto Center
09:26PM 45.1833 -80.3833 161° South 250 288 19,000  Level Toronto Center
09:27PM 45.1167 -80.3667 170° South 250 288 19,000  Level Toronto Center
09:28PM 45.0500 -80.3333 161° South 250 288 19,000  Level Toronto Center
09:29PM 44.9833 -80.3167 170° South 250 288 19,000  Level Toronto Center
09:30PM 44.9167 -80.3000 170° South 250 288 19,000  Level Toronto Center
09:31PM 44.8500 -80.2667 160° South 250 288 19,000 -120 Level Toronto Center
09:32PM 44.7833 -80.2500 170° South 250 288 18,800 -540 Descending Toronto Center
09:33PM 44.7000 -80.2167 164° South 270 311 18,000 -900 Descending Toronto Center
09:34PM 44.6333 -80.2000 170° South 280 322 17,000 -1,200 Descending Toronto Center
09:35PM 44.5500 -80.1667 164° South 290 334 15,700 -1,320 Descending Toronto Center
09:36PM 44.4667 -80.1500 172° South 290 334 14,400 -1,320 Descending Toronto Center
09:37PM 44.4000 -80.1167 160° South 280 322 13,100 -1,260 Descending Toronto Center
09:38PM 44.3167 -80.1000 172° South 280 322 11,900 -1,200 Descending Toronto Center
09:39PM 44.2500 -80.0667 160° South 270 311 10,700 -1,200 Descending Toronto Center
09:40PM 44.1833 -80.0500 170° South 270 311 9,600 -900 Descending Toronto Center
09:41PM 44.1000 -80.0000 157° South 260 299 9,000 -300 Descending Toronto Center
09:42PM 44.0500 -80.0000 180° South 240 276 9,000 -60 Level Toronto Center
09:44PM 43.9333 -79.9167 153° Southeast 230 265 8,900 -300 Descending Toronto Center
09:45PM 43.8833 -79.8667 144° Southeast 240 276 8,100 -480 Descending Toronto Center
09:46PM 43.8333 -79.8000 136° Southeast 240 276 8,000 -180 Descending Toronto Center
09:47PM 43.7833 -79.7500 144° Southeast 230 265 7,800 -840 Descending Toronto Center
09:48PM 43.7167 -79.7333 170° South 240 276 6,400 -1,320 Descending Toronto Center
09:49PM 43.6667 -79.8000 224° Southwest 240 276 5,200 -720 Descending Toronto Center
09:50PM 43.6333 -79.8667 235° Southwest 230 265 5,000 -600 Descending Toronto Center
09:51PM 43.5833 -79.9333 224° Southwest 240 276 4,000 -540 Descending Toronto Center
09:52PM 43.5500 -79.8833 133° Southeast 210 242 4,000 -120 Level Toronto Center
09:53PM 43.5500 -79.8167 90° East 200 230 3,800 -600 Descending Toronto Center
09:54PM 43.5833 -79.7667 47° Northeast 180 207 2,800 -960 Descending Toronto Center
09:55PM 43.6167 -79.7000 55° Northeast 170 196 1,900 -720 Descending Toronto Center
09:56PM 43.6500 -79.6833 20° North 140 161 1,400 -540 Descending Toronto Center